Time;durP1;ratioP1;P1;durP2;ratioP2;P2;SDS_P1;SDS_P2;PMS_P1;PMS_P2;Temp;Humidity;BMP_temperature;BMP_pressure;BME280_temperature;BME280_humidity;BME280_pressure;Samples;Min_cycle;Max_cycle;Signal;HPM_P1;HPM_P2
2024/01/28 00:01:41;;;;;;;17.35;10.57;;;0.50;99.90;;;;;;5087041;28;20563;-30
2024/01/28 00:04:09;;;;;;;21.35;10.85;;;0.40;99.90;;;;;;5098354;28;20074;-32
2024/01/28 00:06:34;;;;;;;17.85;11.05;;;0.30;99.90;;;;;;5095759;28;20391;-31
2024/01/28 00:09:00;;;;;;;14.57;10.23;;;0.30;99.90;;;;;;5098113;28;20093;-32
2024/01/28 00:11:26;;;;;;;14.20;10.30;;;0.20;99.90;;;;;;5072958;28;20513;-31
2024/01/28 00:13:52;;;;;;;17.05;10.82;;;0.10;99.90;;;;;;5096758;28;20390;-30
2024/01/28 00:16:19;;;;;;;16.23;11.05;;;0.10;99.90;;;;;;5094541;28;20047;-30
2024/01/28 00:18:45;;;;;;;15.68;11.15;;;0.10;99.90;;;;;;5090395;28;20032;-30
2024/01/28 00:21:10;;;;;;;18.42;12.13;;;0.10;99.90;;;;;;5076346;28;20044;-30
2024/01/28 00:23:36;;;;;;;17.55;11.07;;;0.10;99.90;;;;;;5076425;28;20069;-30
2024/01/28 00:26:02;;;;;;;22.33;11.68;;;0.10;99.90;;;;;;5101452;28;20098;-30
2024/01/28 00:28:28;;;;;;;20.65;11.48;;;0.10;99.90;;;;;;5094363;28;20131;-31
2024/01/28 00:30:54;;;;;;;18.45;12.32;;;0.10;99.90;;;;;;5095024;28;20036;-31
2024/01/28 00:33:20;;;;;;;19.00;11.50;;;0.10;99.90;;;;;;5094590;28;20448;-30
2024/01/28 00:35:46;;;;;;;17.48;11.10;;;0.00;99.90;;;;;;5077067;28;20040;-30
2024/01/28 00:38:12;;;;;;;18.38;11.02;;;0.00;99.90;;;;;;5095585;28;20044;-30
2024/01/28 00:40:38;;;;;;;19.85;11.82;;;0.10;99.90;;;;;;5095910;28;20492;-31
2024/01/28 00:43:04;;;;;;;19.65;11.52;;;0.10;99.90;;;;;;5080687;28;20036;-30
2024/01/28 00:45:30;;;;;;;19.02;11.80;;;0.10;99.90;;;;;;5095668;28;20028;-33
2024/01/28 00:47:56;;;;;;;18.13;11.10;;;0.20;99.90;;;;;;5075571;28;20051;-32
2024/01/28 00:50:22;;;;;;;21.58;11.85;;;0.20;99.90;;;;;;5096156;28;20388;-31
2024/01/28 00:52:48;;;;;;;16.52;11.57;;;0.20;99.90;;;;;;5069643;28;20032;-31
2024/01/28 00:55:14;;;;;;;17.95;11.90;;;0.20;99.90;;;;;;5076844;28;20052;-30
2024/01/28 00:57:41;;;;;;;20.73;11.68;;;0.20;99.90;;;;;;5093909;28;20060;-30
2024/01/28 01:00:08;;;;;;;18.85;11.73;;;0.20;99.90;;;;;;5094630;28;20039;-31
2024/01/28 01:02:33;;;;;;;17.58;11.57;;;0.10;99.90;;;;;;5092241;28;20071;-30
2024/01/28 01:04:59;;;;;;;16.70;11.10;;;0.10;99.90;;;;;;5087720;28;20035;-31
2024/01/28 01:07:26;;;;;;;20.40;11.88;;;0.10;99.90;;;;;;5090657;28;20123;-30
2024/01/28 01:09:52;;;;;;;24.40;13.02;;;0.10;99.90;;;;;;5095381;28;20403;-30
2024/01/28 01:12:18;;;;;;;20.02;13.18;;;0.10;99.90;;;;;;5094905;28;20040;-30
2024/01/28 01:14:44;;;;;;;17.42;11.57;;;0.10;99.90;;;;;;5095517;28;20024;-30
2024/01/28 01:17:09;;;;;;;21.60;11.52;;;0.10;99.90;;;;;;5094713;28;20047;-30
2024/01/28 01:19:35;;;;;;;18.38;11.38;;;0.10;99.90;;;;;;5100697;28;20036;-30
2024/01/28 01:22:02;;;;;;;25.35;12.90;;;0.10;99.90;;;;;;5094127;28;20234;-31
2024/01/28 01:24:28;;;;;;;18.27;11.93;;;0.10;99.90;;;;;;5093801;28;20068;-32
2024/01/28 01:26:54;;;;;;;14.63;11.05;;;0.20;99.90;;;;;;5093510;28;20040;-31
2024/01/28 01:29:20;;;;;;;16.45;10.52;;;0.20;99.90;;;;;;5094395;28;20044;-32
2024/01/28 01:31:47;;;;;;;14.20;10.48;;;0.20;99.90;;;;;;5093511;28;20364;-30
2024/01/28 01:34:13;;;;;;;18.25;11.80;;;0.20;99.90;;;;;;5095080;28;20467;-32
2024/01/28 01:36:43;;;;;;;15.75;10.82;;;0.20;99.90;;;;;;5091592;28;20047;-32
2024/01/28 01:39:09;;;;;;;18.30;11.73;;;0.10;99.90;;;;;;5089901;28;20047;-33
2024/01/28 01:41:34;;;;;;;17.48;11.27;;;0.10;99.90;;;;;;5097289;28;20035;-33
2024/01/28 01:44:00;;;;;;;19.20;11.82;;;0.10;99.90;;;;;;5094383;28;20051;-33
2024/01/28 01:46:27;;;;;;;20.80;11.10;;;0.10;99.90;;;;;;5093966;28;20093;-32
2024/01/28 01:48:53;;;;;;;23.45;11.85;;;0.00;99.90;;;;;;5096519;28;20044;-32
2024/01/28 01:51:21;;;;;;;19.85;11.70;;;0.00;99.90;;;;;;5095887;28;20071;-31
2024/01/28 01:53:48;;;;;;;23.42;11.20;;;0.00;99.90;;;;;;5096615;28;20043;-30
2024/01/28 01:56:14;;;;;;;16.60;11.30;;;0.00;99.90;;;;;;5094325;28;20644;-30
2024/01/28 01:58:40;;;;;;;17.35;11.20;;;-0.10;99.90;;;;;;5094084;28;20040;-30
2024/01/28 02:01:07;;;;;;;18.17;11.57;;;-0.10;99.90;;;;;;5086336;28;20052;-30
2024/01/28 02:03:33;;;;;;;14.68;10.63;;;-0.10;99.90;;;;;;5072790;28;20048;-30
2024/01/28 02:05:59;;;;;;;16.77;10.73;;;-0.10;99.90;;;;;;5093889;28;20035;-30
2024/01/28 02:08:26;;;;;;;17.30;10.68;;;-0.10;99.90;;;;;;5092072;28;20474;-32
2024/01/28 02:10:52;;;;;;;16.83;10.40;;;-0.10;99.90;;;;;;5068401;28;20048;-30
2024/01/28 02:13:17;;;;;;;17.33;10.88;;;-0.10;99.90;;;;;;5089739;28;20089;-32
2024/01/28 02:15:43;;;;;;;17.40;11.02;;;-0.10;99.90;;;;;;5072906;28;20135;-32
2024/01/28 02:18:09;;;;;;;18.42;10.82;;;-0.10;99.90;;;;;;5063764;28;20051;-32
2024/01/28 02:20:35;;;;;;;19.08;11.68;;;0.00;99.90;;;;;;5106160;28;20486;-30
2024/01/28 02:23:03;;;;;;;21.00;12.70;;;0.00;99.90;;;;;;5113923;28;20542;-32
2024/01/28 02:25:29;;;;;;;18.15;12.23;;;0.10;99.90;;;;;;5093635;28;20035;-32
2024/01/28 02:27:54;;;;;;;19.17;12.20;;;0.10;99.90;;;;;;5097258;28;20124;-31
2024/01/28 02:30:20;;;;;;;18.23;12.35;;;0.10;99.90;;;;;;5094224;28;20043;-31
2024/01/28 02:32:48;;;;;;;20.50;12.02;;;0.10;99.90;;;;;;5093732;28;20039;-32
2024/01/28 02:35:14;;;;;;;23.50;12.43;;;0.10;99.90;;;;;;5092594;28;20092;-30
2024/01/28 02:37:39;;;;;;;22.92;12.52;;;0.10;99.90;;;;;;5093037;28;20115;-30
2024/01/28 02:40:06;;;;;;;21.95;13.35;;;0.10;99.90;;;;;;5093481;28;20032;-30
2024/01/28 02:42:31;;;;;;;23.08;13.55;;;0.20;99.90;;;;;;5092547;28;20039;-30
2024/01/28 02:44:58;;;;;;;24.00;14.57;;;0.20;99.90;;;;;;5082178;28;20169;-31
2024/01/28 02:47:23;;;;;;;23.02;15.88;;;0.20;99.90;;;;;;5071416;28;20462;-32
2024/01/28 02:49:49;;;;;;;23.95;15.70;;;0.30;99.90;;;;;;5080105;28;20107;-32
2024/01/28 02:52:15;;;;;;;25.55;15.82;;;0.40;99.90;;;;;;5089090;28;20098;-31
2024/01/28 02:54:40;;;;;;;24.23;16.25;;;0.40;99.90;;;;;;5093097;28;20072;-30
2024/01/28 02:57:06;;;;;;;23.77;15.98;;;0.40;99.90;;;;;;5093231;28;20516;-30
2024/01/28 02:59:32;;;;;;;23.00;15.50;;;0.50;99.90;;;;;;5093154;28;20040;-32
2024/01/28 03:01:58;;;;;;;24.02;16.30;;;0.40;99.90;;;;;;5074339;28;20040;-30
2024/01/28 03:04:24;;;;;;;20.77;14.35;;;0.50;99.90;;;;;;5073276;28;20160;-30
2024/01/28 03:06:50;;;;;;;23.75;15.60;;;0.50;99.90;;;;;;5073862;28;20081;-30
2024/01/28 03:09:17;;;;;;;21.23;14.73;;;0.50;99.90;;;;;;5094994;28;20085;-30
2024/01/28 03:11:42;;;;;;;26.80;14.85;;;0.50;99.90;;;;;;5099936;28;20562;-31
2024/01/28 03:14:10;;;;;;;22.98;16.33;;;0.50;99.90;;;;;;5091346;28;20112;-31
2024/01/28 03:16:35;;;;;;;21.10;15.18;;;0.50;99.90;;;;;;5092326;28;20043;-33
2024/01/28 03:19:01;;;;;;;26.38;15.88;;;0.50;99.90;;;;;;5093016;28;20040;-30
2024/01/28 03:21:27;;;;;;;23.45;14.30;;;0.50;99.90;;;;;;5074346;28;20055;-30
2024/01/28 03:23:53;;;;;;;23.23;15.75;;;0.50;99.90;;;;;;5097943;28;20071;-30
2024/01/28 03:26:19;;;;;;;23.35;15.43;;;0.40;99.90;;;;;;5093456;28;20115;-31
2024/01/28 03:28:45;;;;;;;20.88;14.10;;;0.50;99.90;;;;;;5092383;28;20071;-30
2024/01/28 03:31:11;;;;;;;21.63;15.52;;;0.40;99.90;;;;;;5095727;28;20036;-30
2024/01/28 03:33:36;;;;;;;29.23;15.82;;;0.40;99.90;;;;;;5097191;28;20036;-30
2024/01/28 03:36:02;;;;;;;22.15;15.02;;;0.40;99.90;;;;;;5074267;28;20079;-30
2024/01/28 03:38:28;;;;;;;29.77;17.45;;;0.40;99.90;;;;;;5086236;28;20076;-32
2024/01/28 03:40:54;;;;;;;25.63;15.88;;;0.50;99.90;;;;;;5089904;28;20047;-32
2024/01/28 03:43:19;;;;;;;26.85;17.15;;;0.50;99.90;;;;;;5092150;28;20131;-33
2024/01/28 03:45:45;;;;;;;21.67;16.02;;;0.50;99.90;;;;;;5092666;28;20090;-30
2024/01/28 03:48:11;;;;;;;24.20;16.10;;;0.40;99.90;;;;;;5088112;28;20395;-30
2024/01/28 03:50:37;;;;;;;25.65;15.60;;;0.50;99.90;;;;;;5086746;28;20044;-31
2024/01/28 03:53:02;;;;;;;26.73;16.15;;;0.50;99.90;;;;;;5077496;28;20144;-30
2024/01/28 03:55:28;;;;;;;29.58;16.48;;;0.40;99.90;;;;;;5095887;28;20050;-30
2024/01/28 03:57:54;;;;;;;24.05;15.90;;;0.40;99.90;;;;;;5096271;28;20097;-31
2024/01/28 04:00:22;;;;;;;27.92;15.45;;;0.40;99.90;;;;;;5103544;28;20123;-31
2024/01/28 04:02:48;;;;;;;22.58;15.20;;;0.40;99.90;;;;;;5098386;28;20372;-31
2024/01/28 04:05:14;;;;;;;27.52;15.35;;;0.40;99.90;;;;;;5091550;28;20122;-31
2024/01/28 04:07:39;;;;;;;25.10;14.30;;;0.40;99.90;;;;;;5103101;28;20046;-30
2024/01/28 04:10:05;;;;;;;22.27;14.68;;;0.40;99.90;;;;;;5098864;28;20093;-30
2024/01/28 04:12:31;;;;;;;22.58;14.15;;;0.30;99.90;;;;;;5097499;28;20303;-30
2024/01/28 04:14:57;;;;;;;21.75;14.45;;;0.30;99.90;;;;;;5096327;28;20482;-30
2024/01/28 04:17:22;;;;;;;24.25;14.65;;;0.20;99.90;;;;;;5095888;28;20039;-30
2024/01/28 04:19:48;;;;;;;17.98;13.15;;;0.10;99.90;;;;;;5095160;28;20067;-30
2024/01/28 04:22:14;;;;;;;20.58;13.93;;;0.00;99.90;;;;;;5102295;28;20028;-31
2024/01/28 04:24:40;;;;;;;24.17;14.00;;;0.00;99.90;;;;;;5100901;28;20047;-31
2024/01/28 04:27:06;;;;;;;23.02;13.43;;;0.00;99.90;;;;;;5095299;28;20047;-31
2024/01/28 04:29:31;;;;;;;19.77;13.02;;;-0.10;99.90;;;;;;5101493;28;20466;-32
2024/01/28 04:31:57;;;;;;;20.88;14.52;;;-0.10;99.90;;;;;;5100580;28;20059;-32
2024/01/28 04:34:23;;;;;;;20.52;14.32;;;-0.20;99.90;;;;;;5092592;28;20047;-31
2024/01/28 04:36:49;;;;;;;20.05;13.82;;;-0.30;99.90;;;;;;5095243;28;20384;-30
2024/01/28 04:39:15;;;;;;;20.58;13.85;;;-0.40;99.90;;;;;;5097579;28;20098;-30
2024/01/28 04:41:41;;;;;;;18.95;13.32;;;-0.40;99.90;;;;;;5083096;28;20188;-30
2024/01/28 04:44:07;;;;;;;22.30;14.30;;;-0.40;99.90;;;;;;5094383;28;20127;-30
2024/01/28 04:46:33;;;;;;;25.42;14.82;;;-0.50;99.90;;;;;;5094747;28;20122;-33
2024/01/28 04:49:02;;;;;;;19.48;14.13;;;-0.50;99.90;;;;;;5076962;28;20463;-32
2024/01/28 04:51:30;;;;;;;22.67;14.07;;;-0.50;99.90;;;;;;5097177;28;20047;-30
2024/01/28 04:53:57;;;;;;;20.02;14.93;;;-0.50;99.90;;;;;;5094234;28;20089;-31
2024/01/28 04:56:23;;;;;;;29.75;15.35;;;-0.50;99.90;;;;;;5094033;28;20050;-30
2024/01/28 04:58:49;;;;;;;29.38;17.48;;;-0.40;99.90;;;;;;5095176;28;20167;-30
2024/01/28 05:01:14;;;;;;;22.52;14.90;;;-0.40;99.90;;;;;;5092808;28;20135;-30
2024/01/28 05:03:40;;;;;;;23.40;15.23;;;-0.30;99.90;;;;;;5094182;28;20036;-30
2024/01/28 05:06:07;;;;;;;23.50;14.77;;;-0.30;99.90;;;;;;5093478;28;20032;-30
2024/01/28 05:08:33;;;;;;;25.52;15.00;;;-0.30;99.90;;;;;;5098512;28;20106;-30
2024/01/28 05:10:59;;;;;;;28.08;14.90;;;-0.30;99.90;;;;;;5094022;28;20518;-30
2024/01/28 05:13:24;;;;;;;22.38;14.70;;;-0.30;99.90;;;;;;5096657;28;20071;-30
2024/01/28 05:15:50;;;;;;;22.80;15.05;;;-0.30;99.90;;;;;;5095071;28;20541;-30
2024/01/28 05:18:16;;;;;;;22.58;14.88;;;-0.40;99.90;;;;;;5076537;28;20040;-30
2024/01/28 05:20:42;;;;;;;26.80;15.63;;;-0.40;99.90;;;;;;5085853;28;20040;-32
2024/01/28 05:23:09;;;;;;;25.85;15.30;;;-0.40;99.90;;;;;;5093453;28;20032;-30
2024/01/28 05:25:35;;;;;;;24.48;15.70;;;-0.30;99.90;;;;;;5093558;28;20111;-31
2024/01/28 05:28:01;;;;;;;25.85;15.10;;;-0.40;99.90;;;;;;5097137;28;20165;-30
2024/01/28 05:30:27;;;;;;;25.65;15.45;;;-0.30;99.90;;;;;;5069997;28;20040;-31
2024/01/28 05:32:53;;;;;;;20.42;14.82;;;-0.30;99.90;;;;;;5090605;28;20039;-30
2024/01/28 05:35:19;;;;;;;20.80;14.90;;;-0.30;99.90;;;;;;5091075;28;20440;-30
2024/01/28 05:37:45;;;;;;;23.08;13.85;;;-0.40;99.90;;;;;;5093591;28;20085;-30
2024/01/28 05:40:11;;;;;;;21.38;14.00;;;-0.40;99.90;;;;;;5093601;28;20115;-31
2024/01/28 05:42:37;;;;;;;23.20;14.30;;;-0.40;99.90;;;;;;5093760;28;20502;-31
2024/01/28 05:45:03;;;;;;;21.95;14.75;;;-0.40;99.90;;;;;;5094544;28;20038;-33
2024/01/28 05:47:29;;;;;;;21.10;13.77;;;-0.50;99.90;;;;;;5102628;28;20484;-32
2024/01/28 05:49:55;;;;;;;18.15;13.88;;;-0.50;99.90;;;;;;5093518;28;20043;-32
2024/01/28 05:52:21;;;;;;;19.88;14.88;;;-0.50;99.90;;;;;;5072988;28;20044;-30
2024/01/28 05:54:47;;;;;;;19.95;14.23;;;-0.50;99.90;;;;;;5094434;28;20036;-30
2024/01/28 05:57:12;;;;;;;17.15;13.13;;;-0.60;99.90;;;;;;5089467;28;20040;-30
2024/01/28 05:59:38;;;;;;;30.02;16.27;;;-0.70;99.90;;;;;;5067682;28;20043;-30
2024/01/28 06:02:04;;;;;;;23.10;16.25;;;-0.60;99.90;;;;;;5090207;28;20042;-30
2024/01/28 06:04:30;;;;;;;26.35;17.05;;;-0.60;99.90;;;;;;5092425;28;20509;-33
2024/01/28 06:06:56;;;;;;;25.30;16.30;;;-0.50;99.90;;;;;;5095874;28;20047;-33
2024/01/28 06:09:22;;;;;;;25.67;15.18;;;-0.50;99.90;;;;;;5094125;28;20406;-32
2024/01/28 06:11:47;;;;;;;23.83;15.18;;;-0.50;99.90;;;;;;5108764;28;20049;-33
2024/01/28 06:14:13;;;;;;;24.52;14.10;;;-0.50;99.90;;;;;;5095711;28;20044;-31
2024/01/28 06:16:39;;;;;;;24.17;15.23;;;-0.40;99.90;;;;;;5086799;28;20506;-32
2024/01/28 06:19:05;;;;;;;22.48;15.50;;;-0.50;99.90;;;;;;5093590;28;20040;-33
2024/01/28 06:21:30;;;;;;;23.02;16.00;;;-0.50;99.90;;;;;;5093742;28;20032;-31
2024/01/28 06:23:56;;;;;;;17.88;14.27;;;-0.50;99.90;;;;;;5093062;28;20089;-31
2024/01/28 06:26:22;;;;;;;23.30;14.73;;;-0.50;99.90;;;;;;5078345;28;20038;-30
2024/01/28 06:28:48;;;;;;;19.48;13.65;;;-0.50;99.90;;;;;;5098642;28;20036;-30
2024/01/28 06:31:14;;;;;;;26.75;14.90;;;-0.60;99.90;;;;;;5075695;28;20036;-30
2024/01/28 06:33:41;;;;;;;20.88;13.93;;;-0.60;99.90;;;;;;5100789;28;20070;-30
2024/01/28 06:36:07;;;;;;;21.45;14.73;;;-0.70;99.90;;;;;;5089580;28;20420;-30
2024/01/28 06:38:33;;;;;;;22.48;15.30;;;-0.80;99.90;;;;;;5095961;28;20040;-33
2024/01/28 06:41:00;;;;;;;24.27;14.60;;;-0.80;99.90;;;;;;5090698;28;20426;-32
2024/01/28 06:43:26;;;;;;;20.42;14.35;;;-0.90;99.90;;;;;;5086993;28;20051;-32
2024/01/28 06:45:52;;;;;;;25.65;15.88;;;-0.90;99.90;;;;;;5086735;28;20395;-32
2024/01/28 06:48:18;;;;;;;20.58;14.55;;;-0.90;99.90;;;;;;5090462;28;20050;-31
2024/01/28 06:50:45;;;;;;;20.25;15.57;;;-1.00;99.90;;;;;;5085379;28;20028;-31
2024/01/28 06:53:11;;;;;;;24.10;15.75;;;-0.90;99.90;;;;;;5090596;28;20049;-31
2024/01/28 06:55:36;;;;;;;23.70;16.92;;;-0.90;99.90;;;;;;5093612;28;20047;-31
2024/01/28 06:58:02;;;;;;;23.92;15.95;;;-0.90;99.90;;;;;;5085044;28;20127;-31
2024/01/28 07:00:28;;;;;;;24.85;16.20;;;-0.80;99.90;;;;;;5086863;28;20063;-31
2024/01/28 07:02:54;;;;;;;24.35;15.98;;;-0.70;99.90;;;;;;5085283;28;20043;-31
2024/01/28 07:05:24;;;;;;;23.30;16.33;;;-0.70;99.90;;;;;;5072040;28;20049;-32
2024/01/28 07:07:50;;;;;;;30.90;17.88;;;-0.70;99.90;;;;;;5084736;28;20054;-32
2024/01/28 07:10:16;;;;;;;26.02;16.13;;;-0.70;99.90;;;;;;5090918;28;20434;-31
2024/01/28 07:12:42;;;;;;;28.13;17.00;;;-0.70;99.90;;;;;;5090440;28;20036;-31
2024/01/28 07:15:09;;;;;;;28.35;16.60;;;-0.70;99.90;;;;;;5099977;28;20042;-31
2024/01/28 07:17:35;;;;;;;20.45;15.13;;;-0.70;99.90;;;;;;5089471;28;20040;-30
2024/01/28 07:20:01;;;;;;;24.52;16.33;;;-0.60;99.90;;;;;;5091496;28;20464;-30
2024/01/28 07:22:26;;;;;;;22.88;15.68;;;-0.60;99.90;;;;;;5090874;28;20040;-30
2024/01/28 07:24:52;;;;;;;24.58;15.82;;;-0.60;99.90;;;;;;5102551;28;20044;-30
2024/01/28 07:27:18;;;;;;;28.92;15.82;;;-0.60;99.90;;;;;;5067774;28;20059;-31
2024/01/28 07:29:43;;;;;;;23.20;15.48;;;-0.60;99.90;;;;;;5092505;28;20036;-31
2024/01/28 07:32:13;;;;;;;23.02;16.40;;;-0.60;99.90;;;;;;5087222;28;20036;-30
2024/01/28 07:34:40;;;;;;;20.92;15.63;;;-0.60;99.90;;;;;;5090088;28;20395;-31
2024/01/28 07:37:06;;;;;;;27.17;15.63;;;-0.60;99.90;;;;;;5068474;28;20070;-30
2024/01/28 07:39:31;;;;;;;25.17;15.52;;;-0.60;99.90;;;;;;5071083;28;20086;-30
2024/01/28 07:42:00;;;;;;;27.83;15.77;;;-0.60;99.90;;;;;;5094074;28;20097;-30
2024/01/28 07:44:26;;;;;;;22.05;15.68;;;-0.50;99.90;;;;;;5068114;28;20176;-30
2024/01/28 07:46:53;;;;;;;20.73;15.57;;;-0.50;99.90;;;;;;5089926;28;20039;-30
2024/01/28 07:49:22;;;;;;;21.30;14.38;;;-0.60;99.90;;;;;;5071491;28;20047;-30
2024/01/28 07:51:47;;;;;;;21.05;14.98;;;-0.60;99.90;;;;;;5081969;28;20503;-30
2024/01/28 07:54:14;;;;;;;20.08;13.68;;;-0.60;99.90;;;;;;5087642;28;20047;-30
2024/01/28 07:56:39;;;;;;;27.05;15.68;;;-0.60;99.90;;;;;;5072764;28;20079;-30
2024/01/28 07:59:05;;;;;;;23.90;15.05;;;-0.60;99.90;;;;;;5072944;28;20124;-30
2024/01/28 08:01:32;;;;;;;24.50;14.93;;;-0.50;99.90;;;;;;5091486;28;20032;-30
2024/01/28 08:03:58;;;;;;;24.88;14.65;;;-0.40;99.90;;;;;;5084854;28;20054;-30
2024/01/28 08:06:24;;;;;;;30.08;15.07;;;-0.50;99.90;;;;;;5086789;28;20102;-30
2024/01/28 08:08:50;;;;;;;23.67;13.95;;;-0.50;99.90;;;;;;5092087;28;20032;-30
2024/01/28 08:11:16;;;;;;;21.58;14.23;;;-0.40;99.90;;;;;;5092310;28;20032;-30
2024/01/28 08:13:42;;;;;;;19.00;13.95;;;-0.30;99.90;;;;;;5099169;28;20399;-30
2024/01/28 08:16:07;;;;;;;29.10;13.82;;;-0.20;99.90;;;;;;5112260;28;20043;-30
2024/01/28 08:18:33;;;;;;;21.27;12.93;;;-0.20;99.90;;;;;;5107003;28;20043;-30
2024/01/28 08:20:59;;;;;;;21.40;14.55;;;-0.20;99.90;;;;;;5106684;28;20051;-30
2024/01/28 08:23:29;;;;;;;32.33;23.10;;;-0.10;99.90;;;;;;5088551;28;20039;-32
2024/01/28 08:25:55;;;;;;;51.78;35.65;;;-0.10;99.90;;;;;;5096484;28;20096;-30
2024/01/28 08:28:21;;;;;;;41.20;31.35;;;-0.10;99.90;;;;;;5082738;28;20119;-30
2024/01/28 08:30:48;;;;;;;25.75;17.10;;;0.10;99.90;;;;;;5087100;28;20145;-32
2024/01/28 08:33:14;;;;;;;18.35;13.10;;;0.10;99.90;;;;;;5094649;28;20028;-32
2024/01/28 08:35:39;;;;;;;17.98;12.77;;;0.10;99.90;;;;;;5092560;28;20455;-31
2024/01/28 08:38:05;;;;;;;20.05;12.52;;;0.20;99.90;;;;;;5092077;28;20040;-31
2024/01/28 08:40:31;;;;;;;18.23;12.13;;;0.30;99.90;;;;;;5095954;28;20047;-31
2024/01/28 08:42:57;;;;;;;17.83;11.63;;;0.60;99.90;;;;;;5084522;28;20040;-31
2024/01/28 08:45:23;;;;;;;17.45;10.20;;;1.10;99.90;;;;;;5068636;28;20044;-31
2024/01/28 08:47:49;;;;;;;16.35;10.90;;;1.70;99.90;;;;;;5071978;28;20045;-32
2024/01/28 08:50:15;;;;;;;14.80;10.18;;;2.40;99.90;;;;;;5085447;28;20495;-33
2024/01/28 08:52:42;;;;;;;16.17;9.80;;;3.10;99.90;;;;;;5049089;28;20045;-32
2024/01/28 08:55:08;;;;;;;13.63;8.75;;;3.60;99.90;;;;;;5034550;28;20053;-33
2024/01/28 08:57:34;;;;;;;9.60;8.57;;;4.00;99.90;;;;;;5054389;28;20049;-33
2024/01/28 09:00:00;;;;;;;13.50;8.27;;;4.30;99.90;;;;;;5051800;28;20067;-32
2024/01/28 09:02:26;;;;;;;11.25;8.20;;;4.70;99.90;;;;;;5058407;28;20565;-31
2024/01/28 09:04:52;;;;;;;13.10;8.40;;;5.00;99.90;;;;;;5051995;28;20053;-31
2024/01/28 09:07:18;;;;;;;11.23;7.75;;;5.30;99.90;;;;;;5047921;28;20044;-31
2024/01/28 09:09:44;;;;;;;10.68;7.68;;;5.50;99.90;;;;;;5043191;28;20068;-33
2024/01/28 09:12:10;;;;;;;13.57;8.57;;;5.40;99.90;;;;;;5050644;28;20515;-33
2024/01/28 09:14:36;;;;;;;11.43;7.78;;;5.00;99.90;;;;;;5051619;28;20416;-31
2024/01/28 09:17:02;;;;;;;12.90;7.97;;;4.60;99.90;;;;;;5047766;28;20151;-32
2024/01/28 09:19:28;;;;;;;12.20;7.97;;;4.20;99.90;;;;;;5044283;28;20128;-33
2024/01/28 09:21:54;;;;;;;14.82;8.32;;;3.80;99.90;;;;;;5053198;28;20477;-30
2024/01/28 09:24:20;;;;;;;13.57;7.53;;;3.60;99.90;;;;;;5049512;28;20500;-30
2024/01/28 09:26:46;;;;;;;11.43;8.40;;;3.40;99.90;;;;;;5047381;28;20044;-30
2024/01/28 09:29:12;;;;;;;12.88;8.15;;;3.40;99.90;;;;;;5054744;28;20154;-30
2024/01/28 09:31:38;;;;;;;13.88;8.00;;;3.50;99.90;;;;;;5047048;28;20098;-32
2024/01/28 09:34:04;;;;;;;14.10;9.05;;;4.10;99.90;;;;;;5054296;28;20044;-32
2024/01/28 09:36:30;;;;;;;12.65;8.00;;;4.90;99.90;;;;;;5059590;28;20144;-33
2024/01/28 09:38:56;;;;;;;10.77;7.00;;;5.70;99.90;;;;;;5046202;28;20136;-33
2024/01/28 09:41:25;;;;;;;11.57;7.43;;;6.50;99.90;;;;;;5050642;28;20453;-32
2024/01/28 09:43:50;;;;;;;11.20;7.25;;;7.50;99.90;;;;;;5059708;28;20067;-33
2024/01/28 09:46:17;;;;;;;12.43;7.80;;;8.00;99.90;;;;;;5047355;28;20037;-31
2024/01/28 09:48:46;;;;;;;9.75;7.07;;;8.70;99.90;;;;;;5050784;28;20088;-32
2024/01/28 09:51:13;;;;;;;10.35;7.07;;;9.30;99.90;;;;;;5046745;28;20047;-32
2024/01/28 09:53:41;;;;;;;10.38;6.65;;;9.40;99.90;;;;;;5094216;28;20331;-32
2024/01/28 09:56:10;;;;;;;14.10;6.78;;;9.40;99.90;;;;;;5071616;28;20055;-31
2024/01/28 09:58:39;;;;;;;10.45;6.35;;;9.50;99.90;;;;;;5069309;28;20059;-31
2024/01/28 10:01:05;;;;;;;9.75;6.20;;;9.70;99.90;;;;;;5084138;28;20073;-32
2024/01/28 10:03:32;;;;;;;9.52;6.30;;;10.00;99.90;;;;;;5092900;28;20112;-32
2024/01/28 10:05:58;;;;;;;8.27;6.03;;;10.20;99.90;;;;;;5087136;28;20055;-32
2024/01/28 10:08:27;;;;;;;9.63;6.50;;;10.50;99.90;;;;;;5089737;28;20044;-31
2024/01/28 10:10:55;;;;;;;11.07;6.30;;;10.60;99.90;;;;;;5088399;28;20051;-33
2024/01/28 10:13:21;;;;;;;8.43;6.78;;;10.90;99.90;;;;;;5087394;28;20138;-32
2024/01/28 10:15:56;;;;;;;8.13;5.68;;;11.30;99.90;;;;;;5092009;28;20477;-33
2024/01/28 10:18:23;;;;;;;10.80;6.50;;;11.70;99.90;;;;;;5085074;28;20544;-33
2024/01/28 10:20:50;;;;;;;7.55;5.57;;;12.20;99.90;;;;;;5085826;28;20429;-32
2024/01/28 10:23:17;;;;;;;9.68;5.75;;;12.10;99.90;;;;;;5090037;28;20036;-33
2024/01/28 10:25:43;;;;;;;12.50;6.00;;;12.20;99.90;;;;;;5088133;28;20044;-34
2024/01/28 10:28:09;;;;;;;8.18;5.30;;;12.10;99.90;;;;;;5090032;28;20115;-31
2024/01/28 10:30:35;;;;;;;8.40;5.50;;;12.10;99.90;;;;;;5088178;28;20111;-33
2024/01/28 10:33:01;;;;;;;8.05;6.10;;;12.30;99.90;;;;;;5080598;28;20110;-34
2024/01/28 10:35:28;;;;;;;7.03;5.30;;;12.00;99.90;;;;;;5085248;28;20172;-34
2024/01/28 10:37:56;;;;;;;8.25;5.75;;;12.10;99.90;;;;;;5063463;28;20051;-34
2024/01/28 10:40:44;;;;;;;8.18;5.07;;;12.40;99.90;;;;;;5087382;28;20044;-31
2024/01/28 10:43:15;;;;;;;6.10;5.47;;;12.00;82.40;;;;;;5087133;28;20048;-33
2024/01/28 10:45:43;;;;;;;7.80;5.88;;;11.80;99.90;;;;;;5087129;28;20047;-33
2024/01/28 10:48:14;;;;;;;7.25;5.03;;;11.80;99.90;;;;;;5093382;28;20075;-33
2024/01/28 10:50:41;;;;;;;6.30;4.80;;;12.20;99.90;;;;;;5087928;28;20115;-32
2024/01/28 10:53:09;;;;;;;7.90;5.57;;;12.70;99.90;;;;;;5083853;28;20075;-32
2024/01/28 10:55:35;;;;;;;7.32;5.63;;;12.90;99.20;;;;;;5085586;28;20036;-33
2024/01/28 10:58:04;;;;;;;8.02;5.57;;;12.80;90.40;;;;;;5080703;28;20036;-32
2024/01/28 11:00:31;;;;;;;11.63;5.35;;;12.40;94.20;;;;;;5087032;28;20035;-33
2024/01/28 11:02:59;;;;;;;9.77;5.38;;;12.50;99.90;;;;;;5078584;28;20448;-33
2024/01/28 11:05:28;;;;;;;7.25;4.55;;;12.90;99.90;;;;;;5070954;28;20044;-32
2024/01/28 11:07:59;;;;;;;6.93;5.07;;;13.40;99.90;;;;;;5067177;28;20079;-33
2024/01/28 11:10:28;;;;;;;7.63;4.97;;;14.00;95.70;;;;;;5095329;28;20402;-33
2024/01/28 11:12:56;;;;;;;6.53;5.55;;;14.20;84.70;;;;;;5084570;28;20393;-34
2024/01/28 11:15:22;;;;;;;5.82;5.00;;;14.80;84.50;;;;;;5071581;28;20518;-35
2024/01/28 11:17:50;;;;;;;9.77;5.10;;;14.60;81.50;;;;;;5099915;28;20482;-35
2024/01/28 11:20:30;;;;;;;5.63;4.63;;;15.00;79.90;;;;;;5084891;28;20466;-34
2024/01/28 11:23:01;;;;;;;8.20;4.68;;;15.20;74.20;;;;;;5096060;28;20513;-34
2024/01/28 11:25:29;;;;;;;5.60;4.53;;;15.10;74.30;;;;;;5086544;28;20071;-32
2024/01/28 11:28:05;;;;;;;7.13;4.72;;;14.90;73.70;;;;;;5086700;28;20127;-32
2024/01/28 11:30:31;;;;;;;6.80;4.20;;;14.30;72.00;;;;;;5087809;28;20048;-32
2024/01/28 11:33:17;;;;;;;5.90;4.55;;;13.80;72.90;;;;;;5085625;28;20489;-33
2024/01/28 11:35:45;;;;;;;6.10;5.07;;;13.40;71.60;;;;;;5078243;28;20052;-34
2024/01/28 11:38:18;;;;;;;8.10;4.72;;;13.70;75.20;;;;;;5086402;28;20511;-35
2024/01/28 11:40:53;;;;;;;6.30;4.55;;;13.90;74.70;;;;;;5073033;28;20046;-34
2024/01/28 11:43:19;;;;;;;6.43;4.40;;;13.90;74.30;;;;;;5064421;28;20494;-34
2024/01/28 11:45:44;;;;;;;6.15;4.47;;;14.10;75.50;;;;;;5087555;28;20098;-34
2024/01/28 11:48:12;;;;;;;5.70;4.25;;;13.90;74.20;;;;;;5078913;28;20072;-34
2024/01/28 11:50:39;;;;;;;4.85;4.35;;;14.50;76.40;;;;;;5051546;28;20044;-32
2024/01/28 11:53:05;;;;;;;8.20;5.07;;;14.80;74.40;;;;;;5067037;28;20068;-33
2024/01/28 11:55:34;;;;;;;4.65;3.72;;;15.40;73.20;;;;;;5080869;28;20734;-33
2024/01/28 11:58:00;;;;;;;5.00;4.00;;;15.50;72.50;;;;;;5062553;28;20047;-33
2024/01/28 12:00:26;;;;;;;6.20;4.32;;;15.40;72.00;;;;;;5086945;28;20467;-33
2024/01/28 12:02:53;;;;;;;5.03;4.00;;;15.20;72.50;;;;;;5090609;28;20541;-35
2024/01/28 12:05:19;;;;;;;6.00;4.07;;;15.00;73.20;;;;;;5067433;28;20102;-32
2024/01/28 12:07:46;;;;;;;6.88;4.22;;;14.80;73.10;;;;;;5088005;28;20039;-32
2024/01/28 12:10:12;;;;;;;5.25;4.13;;;14.50;71.50;;;;;;5083211;28;20040;-33
2024/01/28 12:12:42;;;;;;;7.50;3.95;;;14.50;71.40;;;;;;5085636;28;20495;-33
2024/01/28 12:15:09;;;;;;;5.57;3.88;;;14.40;70.60;;;;;;5097539;28;20402;-33
2024/01/28 12:17:36;;;;;;;5.78;4.10;;;14.30;70.50;;;;;;5072133;28;20051;-33
2024/01/28 12:20:03;;;;;;;6.28;3.97;;;14.60;72.20;;;;;;5090439;28;20097;-30
2024/01/28 12:22:39;;;;;;;6.15;4.10;;;14.80;72.70;;;;;;5072620;28;20055;-31
2024/01/28 12:25:10;;;;;;;4.72;3.70;;;15.00;71.30;;;;;;5072284;28;20109;-31
2024/01/28 12:27:37;;;;;;;5.68;4.05;;;15.20;71.10;;;;;;5081556;28;20050;-31
2024/01/28 12:30:03;;;;;;;4.30;3.55;;;15.30;71.30;;;;;;5087142;28;20479;-31
2024/01/28 12:32:29;;;;;;;4.75;3.60;;;15.80;70.40;;;;;;5084095;28;20097;-31